Time;durP1;ratioP1;P1;durP2;ratioP2;P2;SDS_P1;SDS_P2;PMS_P1;PMS_P2;Temp;Humidity;BMP_temperature;BMP_pressure;BME280_temperature;BME280_humidity;BME280_pressure;Samples;Min_cycle;Max_cycle;Signal;HPM_P1;HPM_P2
2023/07/01 00:01:46;;;;;;;2.92;1.80;;;;;;;18.26;58.76;100709.41;5016576;28;20044;-75
2023/07/01 00:04:12;;;;;;;4.85;2.28;;;;;;;18.26;58.46;100703.16;5019839;28;20110;-75
2023/07/01 00:06:41;;;;;;;5.25;2.30;;;;;;;18.26;58.99;100705.88;5039897;28;20040;-75
2023/07/01 00:09:08;;;;;;;5.65;2.08;;;;;;;18.23;59.04;100700.97;5039283;28;20385;-75
2023/07/01 00:11:33;;;;;;;3.15;1.73;;;;;;;18.20;59.33;100683.41;5043120;28;20037;-74
2023/07/01 00:13:58;;;;;;;2.38;1.70;;;;;;;18.21;59.17;100685.06;5041597;28;20081;-74
2023/07/01 00:16:24;;;;;;;6.20;2.58;;;;;;;18.17;58.80;100668.53;5026850;28;20036;-75
2023/07/01 00:18:49;;;;;;;5.25;1.98;;;;;;;18.22;59.04;100678.56;5039595;28;20523;-74
2023/07/01 00:21:14;;;;;;;10.43;2.40;;;;;;;18.19;58.91;100670.97;5037623;28;20081;-75
2023/07/01 00:23:40;;;;;;;4.70;2.35;;;;;;;18.22;59.38;100675.88;5030512;28;20025;-75
2023/07/01 00:26:05;;;;;;;4.25;2.05;;;;;;;18.17;59.62;100665.81;5040676;28;20029;-75
2023/07/01 00:28:30;;;;;;;2.83;1.92;;;;;;;18.18;59.75;100667.47;5033755;28;20030;-75
2023/07/01 00:30:56;;;;;;;3.20;2.28;;;;;;;18.15;60.07;100664.44;5023307;28;20041;-75
2023/07/01 00:33:21;;;;;;;4.60;2.35;;;;;;;18.07;61.33;100657.59;5029404;28;20029;-75
2023/07/01 00:35:47;;;;;;;3.83;2.17;;;;;;;18.05;60.90;100653.50;5034408;28;20044;-75
2023/07/01 00:38:12;;;;;;;3.40;2.28;;;;;;;17.98;60.78;100639.41;5018371;28;20036;-75
2023/07/01 00:40:38;;;;;;;4.50;2.30;;;;;;;17.99;61.51;100649.94;5039871;28;20091;-75
2023/07/01 00:43:03;;;;;;;5.60;1.80;;;;;;;17.98;61.37;100644.81;5044343;28;20102;-75
2023/07/01 00:45:28;;;;;;;5.05;2.08;;;;;;;17.95;61.59;100638.03;5042896;28;20029;-75
2023/07/01 00:47:54;;;;;;;7.05;2.40;;;;;;;17.96;61.78;100629.66;5045218;28;20032;-75
2023/07/01 00:50:19;;;;;;;5.78;2.00;;;;;;;17.94;62.43;100633.69;5039273;28;20395;-75
2023/07/01 00:52:46;;;;;;;7.20;2.47;;;;;;;17.91;62.83;100618.00;5033901;28;20057;-75
2023/07/01 00:55:12;;;;;;;6.32;2.45;;;;;;;17.92;62.86;100627.72;5034446;28;20071;-75
2023/07/01 00:57:38;;;;;;;3.45;2.00;;;;;;;17.91;63.38;100618.00;5039743;28;20472;-75
2023/07/01 01:00:10;;;;;;;3.22;2.50;;;;;;;17.86;63.46;100613.34;5030257;28;20084;-75
2023/07/01 01:02:46;;;;;;;;;;;;;;;17.97;63.14;100625.09;5032811;28;20025;-75
2023/07/01 01:05:15;;;;;;;4.50;2.20;;;;;;;17.92;63.43;100620.47;5042938;28;19912;-75
2023/07/01 01:07:56;;;;;;;5.70;2.60;;;;;;;17.91;63.68;100612.59;5032097;28;20461;-75
2023/07/01 01:10:23;;;;;;;5.60;2.35;;;;;;;17.87;64.03;100603.41;5028110;28;20032;-75
2023/07/01 01:12:56;;;;;;;11.65;2.72;;;;;;;17.89;64.00;100606.63;5008190;28;20029;-75
2023/07/01 01:15:22;;;;;;;7.20;2.55;;;;;;;17.92;64.03;100598.88;5035855;28;20040;-75
2023/07/01 01:17:51;;;;;;;4.28;2.15;;;;;;;17.95;64.43;100608.34;5030445;28;20033;-75
2023/07/01 01:20:20;;;;;;;5.88;2.30;;;;;;;17.95;64.74;100611.88;5030747;28;20028;-75
2023/07/01 01:23:05;;;;;;;4.25;2.35;;;;;;;17.98;64.92;100604.34;5034056;28;20519;-75
2023/07/01 01:25:47;;;;;;;7.97;2.67;;;;;;;17.98;65.46;100602.44;5041909;28;20107;-75
2023/07/01 01:28:13;;;;;;;5.00;1.90;;;;;;;17.99;65.54;100598.66;5045189;28;20102;-75
2023/07/01 01:30:38;;;;;;;8.23;2.47;;;;;;;17.99;65.67;100587.88;5037503;28;20040;-75
2023/07/01 01:33:05;;;;;;;8.60;3.00;;;;;;;18.00;65.66;100588.69;5038407;28;20029;-75
2023/07/01 01:35:31;;;;;;;4.53;2.10;;;;;;;17.96;65.87;100578.41;5047708;28;20448;-75
2023/07/01 01:38:20;;;;;;;7.40;3.28;;;;;;;18.03;65.77;100585.50;5036176;28;20072;-75
2023/07/01 01:41:04;;;;;;;3.65;2.25;;;;;;;18.02;65.87;100590.06;5035696;28;20473;-75
2023/07/01 01:43:57;;;;;;;8.45;2.60;;;;;;;18.05;66.40;100572.56;5031013;28;20103;-75
2023/07/01 01:46:24;;;;;;;7.47;3.05;;;;;;;18.03;67.66;100580.09;5035802;28;20041;-75
2023/07/01 01:48:52;;;;;;;3.67;2.55;;;;;;;18.02;67.94;100564.97;5034173;28;20079;-75
2023/07/01 01:51:20;;;;;;;3.67;2.33;;;;;;;18.00;67.94;100559.00;5045745;28;20049;-75
2023/07/01 01:53:47;;;;;;;5.85;2.92;;;;;;;18.05;68.87;100559.06;5033092;28;20037;-75
2023/07/01 01:56:12;;;;;;;4.13;2.30;;;;;;;18.05;68.54;100551.81;5046549;28;20033;-75
2023/07/01 01:58:38;;;;;;;6.20;2.55;;;;;;;18.05;69.33;100556.34;5037320;28;20033;-75
2023/07/01 02:01:04;;;;;;;7.00;2.53;;;;;;;18.01;69.31;100547.97;5043186;28;20036;-75
2023/07/01 02:03:29;;;;;;;5.40;2.53;;;;;;;18.01;69.72;100547.97;5024605;28;20037;-75
2023/07/01 02:05:54;;;;;;;10.48;2.78;;;;;;;17.99;70.50;100542.00;5041234;28;20499;-76
2023/07/01 02:08:20;;;;;;;5.53;2.42;;;;;;;17.99;70.36;100533.09;5029472;28;20033;-75
2023/07/01 02:10:45;;;;;;;8.73;4.07;;;;;;;17.99;71.27;100539.31;5017241;28;20041;-75
2023/07/01 02:13:10;;;;;;;3.53;2.33;;;;;;;17.95;71.38;100539.00;5033346;28;20116;-75
2023/07/01 02:15:36;;;;;;;7.22;2.75;;;;;;;17.98;71.75;100534.19;5003476;28;20036;-75
2023/07/01 02:18:03;;;;;;;8.48;2.65;;;;;;;17.95;72.52;100530.91;5050782;28;20079;-75
2023/07/01 02:20:29;;;;;;;3.70;2.33;;;;;;;17.92;73.00;100531.41;5021259;28;20025;-75
2023/07/01 02:22:54;;;;;;;3.40;2.08;;;;;;;17.90;73.22;100524.66;5046007;28;20037;-75
2023/07/01 02:25:20;;;;;;;4.63;2.63;;;;;;;17.87;73.67;100517.06;5038821;28;20388;-76
2023/07/01 02:27:45;;;;;;;4.75;2.47;;;;;;;17.87;73.88;100525.16;5049617;28;20396;-75
2023/07/01 02:30:11;;;;;;;7.78;2.65;;;;;;;17.87;74.24;100514.38;5038219;28;20060;-75
2023/07/01 02:32:36;;;;;;;8.93;3.13;;;;;;;17.84;74.46;100518.38;5044798;28;20476;-75
2023/07/01 02:35:02;;;;;;;8.60;2.33;;;;;;;17.76;75.15;100507.97;5032984;28;20037;-74
2023/07/01 02:37:27;;;;;;;4.28;2.25;;;;;;;17.79;75.10;100501.28;5049775;28;20033;-75
2023/07/01 02:39:53;;;;;;;9.60;4.00;;;;;;;17.77;75.78;100504.25;5021843;28;20098;-75
2023/07/01 02:42:21;;;;;;;7.60;2.88;;;;;;;17.69;75.73;100502.00;5040476;28;20029;-75
2023/07/01 02:44:47;;;;;;;8.68;3.55;;;;;;;17.73;76.78;100513.88;5040744;28;20179;-75
2023/07/01 02:47:13;;;;;;;6.07;2.95;;;;;;;17.70;78.06;100500.91;5045513;28;20028;-74
2023/07/01 02:49:40;;;;;;;3.05;2.25;;;;;;;17.63;80.64;100495.72;5026125;28;20078;-75
2023/07/01 02:52:08;;;;;;;4.80;2.20;;;;;;;17.56;83.04;100518.56;5048290;28;20029;-75
2023/07/01 02:54:33;;;;;;;6.18;2.20;;;;;;;17.49;86.82;100511.44;5047660;28;20036;-74
2023/07/01 02:56:58;;;;;;;8.80;3.08;;;;;;;17.41;89.14;100509.19;5046149;28;20033;-74
2023/07/01 02:59:24;;;;;;;4.85;2.10;;;;;;;17.34;90.09;100503.16;5032515;28;20083;-75
2023/07/01 03:01:49;;;;;;;6.93;2.30;;;;;;;17.27;90.98;100508.75;5039210;28;20040;-74
2023/07/01 03:04:15;;;;;;;3.90;2.38;;;;;;;17.24;91.38;100511.16;5034168;28;20060;-75
2023/07/01 03:06:40;;;;;;;5.55;2.30;;;;;;;17.19;91.60;100495.72;5035996;28;20125;-75
2023/07/01 03:09:07;;;;;;;4.22;2.10;;;;;;;17.17;91.83;100499.72;5040720;28;20036;-74
2023/07/01 03:11:36;;;;;;;2.78;1.90;;;;;;;17.18;92.40;100501.34;5023840;28;20025;-74
2023/07/01 03:14:02;;;;;;;6.28;2.10;;;;;;;17.13;92.42;100494.00;5033148;28;20029;-75
2023/07/01 03:16:30;;;;;;;5.80;2.15;;;;;;;17.13;93.60;100494.00;5031251;28;20038;-74
2023/07/01 03:18:57;;;;;;;3.05;2.17;;;;;;;17.09;93.51;100488.31;5037198;28;20140;-74
2023/07/01 03:21:22;;;;;;;5.35;2.00;;;;;;;17.11;93.68;100484.53;5016051;28;20037;-75
2023/07/01 03:23:47;;;;;;;6.18;2.20;;;;;;;17.09;93.94;100482.91;5037124;28;20538;-75
2023/07/01 03:26:13;;;;;;;7.80;2.85;;;;;;;17.01;96.04;100467.19;5037901;28;20068;-74
2023/07/01 03:28:38;;;;;;;6.43;2.28;;;;;;;16.97;98.23;100474.13;5012573;28;20029;-75
2023/07/01 03:31:04;;;;;;;5.28;2.22;;;;;;;16.92;98.93;100476.75;5043687;28;20097;-75
2023/07/01 03:33:29;;;;;;;4.30;2.15;;;;;;;16.88;100.00;100470.22;5041210;28;20087;-75
2023/07/01 03:35:55;;;;;;;2.05;1.60;;;;;;;16.85;100.00;100476.13;5039860;28;20030;-75
2023/07/01 03:38:20;;;;;;;7.82;1.95;;;;;;;16.79;100.00;100463.63;5038824;28;20030;-74
2023/07/01 03:40:47;;;;;;;3.22;2.00;;;;;;;16.78;100.00;100473.59;5023895;28;20040;-74
2023/07/01 03:43:12;;;;;;;2.85;1.95;;;;;;;16.77;100.00;100469.28;5046280;28;20049;-75
2023/07/01 03:45:38;;;;;;;3.22;2.10;;;;;;;16.76;100.00;100456.81;5042020;28;20044;-75
2023/07/01 03:48:04;;;;;;;5.25;2.00;;;;;;;16.77;100.00;100458.50;5035860;28;20056;-75
2023/07/01 03:50:30;;;;;;;2.47;1.98;;;;;;;16.73;100.00;100464.59;5033351;28;20041;-75
2023/07/01 03:52:55;;;;;;;4.85;2.25;;;;;;;16.71;100.00;100458.63;5007545;28;20060;-76
2023/07/01 03:55:20;;;;;;;5.60;2.83;;;;;;;16.68;100.00;100465.31;5037811;28;20067;-75
2023/07/01 03:57:46;;;;;;;4.20;1.75;;;;;;;16.64;100.00;100461.50;5049286;28;20029;-75
2023/07/01 04:00:17;;;;;;;3.80;2.67;;;;;;;16.56;100.00;100446.56;5031311;28;20026;-75
2023/07/01 04:02:45;;;;;;;4.22;2.72;;;;;;;16.44;100.00;100456.63;5036072;28;20083;-75
2023/07/01 04:05:11;;;;;;;3.95;2.45;;;;;;;16.41;100.00;100451.72;5049276;28;20069;-75
2023/07/01 04:07:40;;;;;;;6.10;2.75;;;;;;;16.28;100.00;100438.59;5044062;28;20045;-76
2023/07/01 04:10:06;;;;;;;6.60;2.83;;;;;;;16.26;100.00;100452.28;5030225;28;20104;-75
2023/07/01 04:12:33;;;;;;;3.08;2.03;;;;;;;16.23;100.00;100443.91;5030439;28;20033;-75
2023/07/01 04:14:59;;;;;;;3.75;2.50;;;;;;;16.16;100.00;100441.34;5030207;28;20029;-75
2023/07/01 04:17:24;;;;;;;5.88;3.00;;;;;;;16.14;100.00;100440.78;5030094;28;20029;-75
2023/07/01 04:19:49;;;;;;;7.38;3.30;;;;;;;16.11;100.00;100427.81;5030010;28;20473;-75
2023/07/01 04:22:15;;;;;;;5.70;2.88;;;;;;;16.05;100.00;100432.28;5029149;28;20099;-75
2023/07/01 04:24:40;;;;;;;6.32;2.70;;;;;;;16.05;100.00;100439.56;5029955;28;20036;-76
2023/07/01 04:27:05;;;;;;;6.82;2.33;;;;;;;15.99;100.00;100434.09;5030035;28;20461;-75
2023/07/01 04:29:31;;;;;;;4.55;2.42;;;;;;;15.92;100.00;100419.97;5029807;28;20656;-75
2023/07/01 04:31:56;;;;;;;2.30;2.10;;;;;;;15.98;100.00;100427.09;5030144;28;20140;-75
2023/07/01 04:34:21;;;;;;;6.70;2.53;;;;;;;16.02;100.00;100427.41;5029931;28;20084;-75
2023/07/01 04:36:47;;;;;;;8.70;2.53;;;;;;;15.91;100.00;100417.53;5030103;28;20646;-75
2023/07/01 04:39:12;;;;;;;3.92;2.50;;;;;;;15.91;100.00;100418.34;5011885;28;20052;-74
2023/07/01 04:41:38;;;;;;;5.53;2.65;;;;;;;15.84;100.00;100409.59;5029879;28;20029;-75
2023/07/01 04:44:05;;;;;;;5.97;3.10;;;;;;;15.89;100.00;100420.44;5029589;28;20061;-74
2023/07/01 04:46:32;;;;;;;4.22;3.00;;;;;;;15.86;100.00;100417.44;5029691;28;20048;-74
2023/07/01 04:48:59;;;;;;;5.93;3.00;;;;;;;15.85;100.00;100413.09;5029676;28;20030;-74
2023/07/01 04:51:25;;;;;;;3.78;2.55;;;;;;;15.86;100.00;100420.94;5029698;28;20477;-74
2023/07/01 04:53:50;;;;;;;3.55;2.50;;;;;;;15.83;100.00;100407.19;5029503;28;20660;-74
2023/07/01 04:56:15;;;;;;;3.45;2.60;;;;;;;15.81;100.00;100395.84;5029713;28;20029;-74
2023/07/01 04:58:41;;;;;;;4.28;2.80;;;;;;;15.77;100.00;100403.56;5029560;28;20453;-73
2023/07/01 05:01:07;;;;;;;7.15;3.00;;;;;;;15.77;100.00;100411.63;5033880;28;20074;-75
2023/07/01 05:03:32;;;;;;;6.82;3.50;;;;;;;15.76;100.00;100400.06;5043062;28;20171;-74
2023/07/01 05:05:58;;;;;;;3.38;2.83;;;;;;;15.72;100.00;100390.88;5048721;28;20115;-74
2023/07/01 05:08:23;;;;;;;4.22;2.97;;;;;;;15.72;100.00;100390.06;5013088;28;20037;-74
2023/07/01 05:10:49;;;;;;;3.40;2.28;;;;;;;15.74;100.00;100396.78;5048331;28;20029;-74
2023/07/01 05:13:14;;;;;;;4.32;2.70;;;;;;;15.77;100.00;100404.41;5030473;28;20056;-74
2023/07/01 05:15:40;;;;;;;3.38;2.67;;;;;;;15.78;100.00;100403.31;5048355;28;20029;-74
2023/07/01 05:18:07;;;;;;;4.93;3.40;;;;;;;15.78;100.00;100406.00;5021192;28;20044;-74
2023/07/01 05:20:33;;;;;;;4.65;2.78;;;;;;;15.84;100.00;100398.03;5029388;28;20040;-74
2023/07/01 05:22:58;;;;;;;4.40;2.90;;;;;;;15.86;100.00;100402.13;5047786;28;20029;-74
2023/07/01 05:25:23;;;;;;;4.03;3.10;;;;;;;15.84;100.00;100400.72;5012914;28;20527;-74
2023/07/01 05:27:48;;;;;;;3.70;3.28;;;;;;;15.85;100.00;100384.38;5040665;28;20492;-74
2023/07/01 05:30:14;;;;;;;5.88;3.67;;;;;;;15.76;100.00;100375.84;5033953;28;20048;-74
2023/07/01 05:32:39;;;;;;;4.78;3.15;;;;;;;15.84;100.00;100382.72;5030415;28;20080;-74
2023/07/01 05:35:05;;;;;;;8.43;4.28;;;;;;;15.86;100.00;100385.97;5033449;28;20029;-74
2023/07/01 05:37:30;;;;;;;4.28;3.40;;;;;;;15.83;100.00;100382.97;5030031;28;20131;-74
2023/07/01 05:39:56;;;;;;;3.97;3.60;;;;;;;15.87;100.00;100384.91;5048443;28;20025;-74
2023/07/01 05:42:21;;;;;;;5.10;3.58;;;;;;;15.89;100.00;100382.81;5039469;28;20044;-74
2023/07/01 05:44:46;;;;;;;4.47;3.28;;;;;;;15.89;100.00;100382.81;5018768;28;20152;-74
2023/07/01 05:47:12;;;;;;;4.22;3.20;;;;;;;15.92;100.00;100386.88;5040763;28;20056;-74
2023/07/01 05:49:37;;;;;;;6.90;4.35;;;;;;;15.93;100.00;100380.47;5018671;28;20044;-74
2023/07/01 05:52:03;;;;;;;6.45;3.92;;;;;;;15.93;100.00;100386.66;5036004;28;20041;-74
2023/07/01 05:54:28;;;;;;;6.50;3.38;;;;;;;15.94;100.00;100382.09;5032980;28;20036;-74
2023/07/01 05:56:53;;;;;;;5.32;3.97;;;;;;;15.92;100.00;100376.13;5029662;28;20090;-74
2023/07/01 05:59:19;;;;;;;4.50;3.45;;;;;;;15.92;100.00;100379.63;5003106;28;20099;-74
2023/07/01 06:01:44;;;;;;;4.60;3.55;;;;;;;15.95;100.00;100381.81;5029237;28;20484;-74
2023/07/01 06:04:09;;;;;;;6.40;4.00;;;;;;;15.94;100.00;100371.31;5034169;28;20033;-74
2023/07/01 06:06:35;;;;;;;5.18;4.10;;;;;;;15.89;100.00;100355.09;5038363;28;20424;-74
2023/07/01 06:09:00;;;;;;;5.80;4.53;;;;;;;15.89;100.00;100361.28;5033081;28;20116;-74
2023/07/01 06:11:25;;;;;;;6.10;4.07;;;;;;;15.98;100.00;100378.66;5045557;28;20098;-74
2023/07/01 06:13:51;;;;;;;5.60;4.70;;;;;;;16.02;100.00;100373.59;5046228;28;20033;-74
2023/07/01 06:16:17;;;;;;;7.07;4.70;;;;;;;16.03;100.00;100374.41;5046283;28;20040;-74
2023/07/01 06:18:42;;;;;;;6.97;4.80;;;;;;;16.02;100.00;100373.59;5041777;28;20029;-74
2023/07/01 06:21:08;;;;;;;6.90;5.13;;;;;;;16.04;100.00;100370.69;5047511;28;20091;-75
2023/07/01 06:23:37;;;;;;;6.07;4.57;;;;;;;16.06;100.00;100376.59;5044889;28;20104;-74
2023/07/01 06:26:04;;;;;;;6.65;4.97;;;;;;;16.00;100.00;100356.88;5038192;28;20094;-74
2023/07/01 06:28:29;;;;;;;6.15;4.40;;;;;;;16.11;100.00;100363.25;5044344;28;20026;-74
2023/07/01 06:30:55;;;;;;;10.23;5.93;;;;;;;16.15;100.00;100361.69;5040397;28;20051;-74
2023/07/01 06:33:20;;;;;;;5.90;4.80;;;;;;;16.20;100.00;100365.28;5028485;28;20034;-74
2023/07/01 06:35:45;;;;;;;6.30;5.43;;;;;;;16.23;100.00;100358.59;5047034;28;20570;-74
2023/07/01 06:38:11;;;;;;;9.02;5.53;;;;;;;16.23;100.00;100357.78;5038163;28;20041;-75
2023/07/01 06:40:36;;;;;;;7.78;5.47;;;;;;;16.21;100.00;100353.44;5039797;28;20362;-74
2023/07/01 06:43:04;;;;;;;9.65;5.20;;;;;;;16.25;100.00;100358.34;5014676;28;20034;-74
2023/07/01 06:45:31;;;;;;;11.38;5.35;;;;;;;16.24;100.00;100362.09;5050102;28;20098;-74
2023/07/01 06:47:57;;;;;;;6.00;4.72;;;;;;;16.24;100.00;100360.22;5021091;28;20984;-74
2023/07/01 06:50:22;;;;;;;7.30;4.65;;;;;;;16.27;100.00;100357.06;5035536;28;20084;-74
2023/07/01 06:52:48;;;;;;;6.28;3.80;;;;;;;16.27;100.00;100356.22;5036510;28;20025;-74
2023/07/01 06:55:13;;;;;;;6.25;4.53;;;;;;;16.23;100.00;100349.72;5036014;28;20037;-74
2023/07/01 06:57:40;;;;;;;4.38;3.95;;;;;;;16.25;100.00;100356.47;5031864;28;20029;-74
2023/07/01 07:00:10;;;;;;;5.70;4.55;;;;;;;16.27;100.00;100354.38;5048715;28;20155;-74
2023/07/01 07:02:36;;;;;;;6.90;4.85;;;;;;;16.27;100.00;100350.84;5050105;28;20538;-74
2023/07/01 07:05:06;;;;;;;5.18;4.28;;;;;;;16.30;100.00;100353.06;5044152;28;20037;-74
2023/07/01 07:07:32;;;;;;;5.35;3.90;;;;;;;16.32;100.00;100348.22;5031526;28;20036;-75
2023/07/01 07:09:57;;;;;;;7.85;4.22;;;;;;;16.37;100.00;100350.97;5035465;28;20034;-75
2023/07/01 07:12:22;;;;;;;7.18;4.78;;;;;;;16.40;100.00;100354.00;5040938;28;20037;-75
2023/07/01 07:14:48;;;;;;;6.68;4.13;;;;;;;16.43;100.00;100348.13;5036760;28;20048;-74
2023/07/01 07:17:13;;;;;;;10.07;4.45;;;;;;;16.44;100.00;100351.63;5039268;28;20087;-75
2023/07/01 07:19:39;;;;;;;6.00;4.43;;;;;;;16.41;100.00;100349.44;5042698;28;20037;-74
2023/07/01 07:22:05;;;;;;;6.60;4.47;;;;;;;16.41;100.00;100344.06;5031517;28;20038;-75
2023/07/01 07:24:30;;;;;;;5.72;4.10;;;;;;;16.43;100.00;100345.44;5036615;28;20029;-75
2023/07/01 07:26:57;;;;;;;6.07;4.25;;;;;;;16.42;100.00;100353.75;5032095;28;20491;-75
2023/07/01 07:29:26;;;;;;;5.00;3.75;;;;;;;16.38;100.00;100339.97;5033497;28;20141;-75
2023/07/01 07:31:51;;;;;;;3.88;3.22;;;;;;;16.39;100.00;100338.09;5042441;28;20104;-75
2023/07/01 07:34:16;;;;;;;4.55;3.95;;;;;;;16.45;100.00;100337.09;5045894;28;20036;-74
2023/07/01 07:36:43;;;;;;;5.32;3.08;;;;;;;16.50;100.00;100345.25;5037631;28;20115;-72
2023/07/01 07:39:10;;;;;;;4.72;3.70;;;;;;;16.51;100.00;100335.31;5049388;28;20040;-73
2023/07/01 07:41:35;;;;;;;6.57;3.42;;;;;;;16.51;100.00;100344.19;5031960;28;20388;-74
2023/07/01 07:44:00;;;;;;;4.60;2.92;;;;;;;16.48;100.00;100346.56;5021324;28;20062;-74
2023/07/01 07:46:26;;;;;;;4.95;3.55;;;;;;;16.51;100.00;100348.78;5037892;28;20048;-75
2023/07/01 07:48:51;;;;;;;3.70;3.33;;;;;;;16.55;100.00;100347.19;5036257;28;20025;-73
2023/07/01 07:51:17;;;;;;;8.50;3.90;;;;;;;16.56;100.00;100346.97;5036322;28;20029;-75
2023/07/01 07:53:42;;;;;;;3.90;3.28;;;;;;;16.55;100.00;100331.84;5034007;28;20120;-75
2023/07/01 07:56:07;;;;;;;5.57;2.80;;;;;;;16.56;100.00;100325.44;5049534;28;20060;-75
2023/07/01 07:58:33;;;;;;;6.13;2.83;;;;;;;16.65;100.00;100332.00;5049487;28;20468;-74
2023/07/01 08:00:58;;;;;;;4.68;3.15;;;;;;;16.72;100.00;100336.41;5049638;28;20025;-74
2023/07/01 08:03:23;;;;;;;3.17;2.80;;;;;;;16.72;100.00;100339.09;5049381;28;20107;-75
2023/07/01 08:05:50;;;;;;;4.85;2.70;;;;;;;16.72;100.00;100334.50;5046185;28;20073;-75
2023/07/01 08:08:16;;;;;;;5.53;3.30;;;;;;;16.71;100.00;100323.97;5030422;28;20061;-74
2023/07/01 08:10:45;;;;;;;4.30;2.75;;;;;;;16.77;100.00;100331.91;5030526;28;20144;-74
2023/07/01 08:13:11;;;;;;;3.53;2.90;;;;;;;16.77;100.00;100326.53;5030482;28;20033;-75
2023/07/01 08:15:37;;;;;;;7.75;3.50;;;;;;;16.79;100.00;100332.50;5030221;28;20030;-74
2023/07/01 08:18:02;;;;;;;3.08;2.60;;;;;;;16.80;100.00;100330.59;5011800;28;20028;-74
2023/07/01 08:20:28;;;;;;;3.85;2.80;;;;;;;16.83;100.00;100328.22;5030048;28;20462;-74
2023/07/01 08:22:53;;;;;;;6.53;3.08;;;;;;;16.88;100.00;100324.78;5030019;28;20378;-74
2023/07/01 08:25:18;;;;;;;4.13;2.85;;;;;;;16.89;100.00;100323.69;5030083;28;20916;-74
2023/07/01 08:27:44;;;;;;;3.53;3.03;;;;;;;16.92;100.00;100317.78;5012251;28;20033;-74
2023/07/01 08:30:10;;;;;;;4.00;2.80;;;;;;;16.95;100.00;100328.09;4995582;28;20389;-73
2023/07/01 08:32:35;;;;;;;3.75;2.97;;;;;;;16.98;100.00;100327.59;5030387;28;20051;-74
2023/07/01 08:35:00;;;;;;;3.67;2.55;;;;;;;17.01;100.00;100323.56;5030051;28;20434;-74
2023/07/01 08:37:26;;;;;;;3.35;2.90;;;;;;;17.07;100.00;100320.66;5012395;28;20037;-74
2023/07/01 08:39:51;;;;;;;6.15;2.88;;;;;;;17.14;100.00;100320.50;5029907;28;20025;-74
2023/07/01 08:42:25;;;;;;;3.40;2.60;;;;;;;17.20;100.00;100318.66;5030052;28;20386;-74
2023/07/01 08:44:53;;;;;;;3.10;2.65;;;;;;;17.21;100.00;100315.72;5029764;28;20126;-74
2023/07/01 08:47:20;;;;;;;5.55;3.78;;;;;;;17.25;100.00;100319.53;5029369;28;20045;-75
2023/07/01 08:49:50;;;;;;;3.75;2.95;;;;;;;17.29;100.00;100319.81;5029601;28;20094;-75
2023/07/01 08:52:19;;;;;;;9.82;2.90;;;;;;;17.33;100.00;100320.13;5029871;28;20029;-74
2023/07/01 08:54:45;;;;;;;4.38;2.80;;;;;;;17.41;100.00;100316.97;5029713;28;20032;-74
2023/07/01 08:57:12;;;;;;;2.53;2.17;;;;;;;17.36;100.00;100309.66;5036784;28;20038;-74
2023/07/01 08:59:38;;;;;;;4.13;2.60;;;;;;;17.43;100.00;100306.75;5048702;28;20029;-74
2023/07/01 09:02:03;;;;;;;2.15;1.95;;;;;;;17.35;100.00;100316.13;5048575;28;20094;-73
2023/07/01 09:04:30;;;;;;;2.75;2.15;;;;;;;17.39;100.00;100314.53;5048432;28;20028;-74
2023/07/01 09:06:56;;;;;;;2.55;2.00;;;;;;;17.39;100.00;100314.53;5047846;28;20084;-74
2023/07/01 09:09:21;;;;;;;3.13;2.30;;;;;;;17.36;100.00;100295.38;5030647;28;20086;-74
2023/07/01 09:11:47;;;;;;;2.40;2.20;;;;;;;17.48;100.00;100307.63;5048632;28;20067;-74
2023/07/01 09:14:13;;;;;;;3.42;2.25;;;;;;;17.50;100.00;100313.56;5048392;28;20065;-74
2023/07/01 09:16:39;;;;;;;2.70;2.30;;;;;;;17.49;100.00;100314.63;5048388;28;20037;-74
2023/07/01 09:19:10;;;;;;;3.38;2.20;;;;;;;17.44;100.00;100301.09;5048365;28;20044;-74
2023/07/01 09:21:37;;;;;;;2.30;2.10;;;;;;;17.40;100.00;100307.28;5030513;28;20033;-74
2023/07/01 09:24:05;;;;;;;5.95;2.17;;;;;;;17.52;100.00;100307.91;5048491;28;20039;-74
2023/07/01 09:26:31;;;;;;;2.28;2.08;;;;;;;17.59;100.00;100313.09;5048313;28;20029;-74
2023/07/01 09:28:58;;;;;;;2.35;2.03;;;;;;;17.69;100.00;100307.81;5048019;28;20090;-74
2023/07/01 09:31:25;;;;;;;2.13;1.92;;;;;;;17.72;100.00;100305.38;5048560;28;20032;-74
2023/07/01 09:34:03;;;;;;;2.42;1.50;;;;;;;17.77;100.00;100295.72;5048394;28;20033;-74
2023/07/01 09:36:30;;;;;;;1.90;1.67;;;;;;;17.72;100.00;100294.59;5048208;28;20079;-74
2023/07/01 09:38:56;;;;;;;1.83;1.60;;;;;;;17.78;100.00;100295.44;5029193;28;20060;-74
2023/07/01 09:41:24;;;;;;;1.48;1.15;;;;;;;17.82;100.00;100298.50;5029256;28;20083;-74
2023/07/01 09:43:50;;;;;;;1.73;1.60;;;;;;;17.81;100.00;100303.06;5029117;28;20041;-74
2023/07/01 09:46:16;;;;;;;2.17;1.55;;;;;;;17.78;100.00;100297.34;5029193;28;20041;-74
2023/07/01 09:48:54;;;;;;;1.20;1.20;;;;;;;17.81;100.00;100294.97;5029310;28;20393;-74
2023/07/01 09:51:24;;;;;;;1.85;1.17;;;;;;;17.84;100.00;100288.22;5029066;28;20369;-74
2023/07/01 09:53:50;;;;;;;2.00;1.60;;;;;;;17.86;100.00;100286.91;5028973;28;20029;-73
2023/07/01 09:56:18;;;;;;;1.20;1.10;;;;;;;17.92;100.00;100293.16;5029383;28;20037;-74
2023/07/01 09:58:44;;;;;;;1.52;1.30;;;;;;;17.96;100.00;100286.97;5029139;28;20025;-74
2023/07/01 10:01:14;;;;;;;1.90;1.70;;;;;;;17.98;100.00;100281.34;5029251;28;20087;-74
2023/07/01 10:03:41;;;;;;;1.60;1.48;;;;;;;17.96;100.00;100289.69;5029293;28;20064;-74
2023/07/01 10:06:07;;;;;;;1.63;1.30;;;;;;;17.95;100.00;100285.38;5011166;28;20037;-74
2023/07/01 10:08:33;;;;;;;2.08;1.75;;;;;;;17.86;100.00;100275.31;5011192;28;20033;-74
2023/07/01 10:11:09;;;;;;;2.10;1.60;;;;;;;17.98;100.00;100286.72;5029204;28;20508;-74
2023/07/01 10:13:43;;;;;;;1.70;1.60;;;;;;;18.02;100.00;100285.13;5029060;28;20503;-74
2023/07/01 10:16:09;;;;;;;2.85;1.70;;;;;;;18.03;100.00;100280.56;5029091;28;20032;-74
2023/07/01 10:18:34;;;;;;;1.55;1.45;;;;;;;18.09;100.00;100283.03;5029635;28;20026;-74
2023/07/01 10:21:29;;;;;;;3.03;1.92;;;;;;;18.14;100.00;100272.25;5032590;28;20485;-74
2023/07/01 10:23:56;;;;;;;2.28;1.90;;;;;;;18.13;100.00;100275.19;5032442;28;20565;-74
2023/07/01 10:26:47;;;;;;;2.17;1.98;;;;;;;18.14;100.00;100271.44;5032542;28;20029;-74
2023/07/01 10:29:31;;;;;;;1.88;1.52;;;;;;;18.18;100.00;100283.34;5032534;28;20098;-73
2023/07/01 10:32:09;;;;;;;8.93;1.77;;;;;;;18.18;100.00;100288.72;5032243;28;20029;-73
2023/07/01 10:34:52;;;;;;;4.10;2.30;;;;;;;18.16;100.00;100290.91;5032338;28;20374;-74
2023/07/01 10:37:19;;;;;;;2.10;1.90;;;;;;;18.19;100.00;100276.88;5031948;28;20033;-74
2023/07/01 10:39:44;;;;;;;5.20;1.77;;;;;;;18.33;100.00;100269.91;5031564;28;20132;-74
2023/07/01 10:42:33;;;;;;;2.58;2.38;;;;;;;18.38;100.00;100264.56;5032221;28;20116;-74
2023/07/01 10:45:10;;;;;;;2.35;1.80;;;;;;;18.48;100.00;100266.50;5032100;28;20052;-74
2023/07/01 10:47:36;;;;;;;2.67;1.90;;;;;;;18.51;100.00;100271.34;5032045;28;20037;-74
2023/07/01 10:50:03;;;;;;;2.45;1.95;;;;;;;18.51;100.00;100262.44;5032105;28;20503;-74
2023/07/01 10:52:29;;;;;;;1.67;1.58;;;;;;;18.52;100.00;100272.16;5031885;28;20370;-74
2023/07/01 10:54:55;;;;;;;2.22;1.95;;;;;;;18.58;100.00;100271.94;5031357;28;20037;-74
2023/07/01 10:57:20;;;;;;;2.58;2.28;;;;;;;18.61;100.00;100276.00;5014004;28;20472;-74
2023/07/01 10:59:46;;;;;;;4.28;2.50;;;;;;;18.64;100.00;100272.75;5031741;28;20065;-74
2023/07/01 11:02:38;;;;;;;3.13;2.22;;;;;;;18.69;100.00;100263.88;5031602;28;20797;-74
2023/07/01 11:05:05;;;;;;;3.70;2.65;;;;;;;18.70;100.00;100271.69;5031154;28;20032;-74
2023/07/01 11:07:31;;;;;;;3.90;2.78;;;;;;;18.75;100.00;100276.34;5031635;28;20072;-74
2023/07/01 11:09:58;;;;;;;3.90;2.55;;;;;;;18.86;100.00;100266.38;5013814;28;20533;-74
2023/07/01 11:12:24;;;;;;;4.63;2.70;;;;;;;18.90;100.00;100259.38;5031312;28;20175;-77
2023/07/01 11:14:51;;;;;;;6.15;3.00;;;;;;;18.97;100.00;100257.25;5031363;28;20112;-76
2023/07/01 11:17:18;;;;;;;4.75;3.38;;;;;;;19.11;100.00;100268.34;5031235;28;20412;-73
2023/07/01 11:19:45;;;;;;;4.53;2.75;;;;;;;19.21;100.00;100262.94;5013327;28;20037;-75